Aviation Digital Data Service (ADDS)

Output produced by METARs form (2305 UTC 26 February 2020)
found at http://www.aviationweather.gov/metar/data/
 
METAR text: LFMN 262300Z 31010KT CAVOK 08/M08 Q1011 NOSIG
Conditions at: LFMN (NICE/COTE D'AZUR, FR) observed 2300 UTC 26 February 2020
Temperature: 8.0°C (46°F)
Dewpoint: -8.0°C (18°F) [RH = 31%]
Pressure (altimeter): 29.85 inches Hg (1011.0 mb)
Winds: from the NW (310 degrees) at 12 MPH (10 knots; 5.1 m/s)
Visibility: 6 or more miles (10+ km)
Ceiling: ceiling and visibility are OK
Clouds: unknown
Weather: no significant weather observed at this time

METAR text: LFMN 262230Z 27012KT CAVOK 09/M05 Q1012 NOSIG
Conditions at: LFMN (NICE/COTE D'AZUR, FR) observed 2230 UTC 26 February 2020
Temperature: 9.0°C (48°F)
Dewpoint: -5.0°C (23°F) [RH = 37%]
Pressure (altimeter): 29.88 inches Hg (1012.0 mb)
Winds: from the W (270 degrees) at 14 MPH (12 knots; 6.2 m/s)
Visibility: 6 or more miles (10+ km)
Ceiling: ceiling and visibility are OK
Clouds: unknown
Weather: no significant weather observed at this time

METAR text: LFMN 262200Z 27013KT CAVOK 09/M06 Q1011 NOSIG
Conditions at: LFMN (NICE/COTE D'AZUR, FR) observed 2200 UTC 26 February 2020
Temperature: 9.0°C (48°F)
Dewpoint: -6.0°C (21°F) [RH = 34%]
Pressure (altimeter): 29.85 inches Hg (1011.0 mb)
Winds: from the W (270 degrees) at 15 MPH (13 knots; 6.7 m/s)
Visibility: 6 or more miles (10+ km)
Ceiling: ceiling and visibility are OK
Clouds: unknown
Weather: no significant weather observed at this time

METAR text: LFMN 262130Z 27012KT CAVOK 09/M06 Q1012 NOSIG
Conditions at: LFMN (NICE/COTE D'AZUR, FR) observed 2130 UTC 26 February 2020
Temperature: 9.0°C (48°F)
Dewpoint: -6.0°C (21°F) [RH = 34%]
Pressure (altimeter): 29.88 inches Hg (1012.0 mb)
Winds: from the W (270 degrees) at 14 MPH (12 knots; 6.2 m/s)
Visibility: 6 or more miles (10+ km)
Ceiling: ceiling and visibility are OK
Clouds: unknown
Weather: no significant weather observed at this time

METAR text: LFMN 262100Z 27008KT CAVOK 09/M05 Q1012 NOSIG
Conditions at: LFMN (NICE/COTE D'AZUR, FR) observed 2100 UTC 26 February 2020
Temperature: 9.0°C (48°F)
Dewpoint: -5.0°C (23°F) [RH = 37%]
Pressure (altimeter): 29.88 inches Hg (1012.0 mb)
Winds: from the W (270 degrees) at 9 MPH (8 knots; 4.1 m/s)
Visibility: 6 or more miles (10+ km)
Ceiling: ceiling and visibility are OK
Clouds: unknown
Weather: no significant weather observed at this time

METAR text: LFMN 262030Z 28010KT CAVOK 10/M06 Q1011 NOSIG
Conditions at: LFMN (NICE/COTE D'AZUR, FR) observed 2030 UTC 26 February 2020
Temperature: 10.0°C (50°F)
Dewpoint: -6.0°C (21°F) [RH = 32%]
Pressure (altimeter): 29.85 inches Hg (1011.0 mb)
Winds: from the W (280 degrees) at 12 MPH (10 knots; 5.1 m/s)
Visibility: 6 or more miles (10+ km)
Ceiling: ceiling and visibility are OK
Clouds: unknown
Weather: no significant weather observed at this time

METAR text: LFMN 262000Z 27007KT CAVOK 10/M05 Q1011 NOSIG
Conditions at: LFMN (NICE/COTE D'AZUR, FR) observed 2000 UTC 26 February 2020
Temperature: 10.0°C (50°F)
Dewpoint: -5.0°C (23°F) [RH = 34%]
Pressure (altimeter): 29.85 inches Hg (1011.0 mb)
Winds: from the W (270 degrees) at 8 MPH (7 knots; 3.6 m/s)
Visibility: 6 or more miles (10+ km)
Ceiling: ceiling and visibility are OK
Clouds: unknown
Weather: no significant weather observed at this time

METAR text: LFMN 261930Z 28013KT CAVOK 10/M06 Q1010 NOSIG
Conditions at: LFMN (NICE/COTE D'AZUR, FR) observed 1930 UTC 26 February 2020
Temperature: 10.0°C (50°F)
Dewpoint: -6.0°C (21°F) [RH = 32%]
Pressure (altimeter): 29.82 inches Hg (1010.0 mb)
Winds: from the W (280 degrees) at 15 MPH (13 knots; 6.7 m/s)
Visibility: 6 or more miles (10+ km)
Ceiling: ceiling and visibility are OK
Clouds: unknown
Weather: no significant weather observed at this time

METAR text: LFMN 261900Z 27013KT 9999 FEW030 10/M06 Q1010 NOSIG
Conditions at: LFMN (NICE/COTE D'AZUR, FR) observed 1900 UTC 26 February 2020
Temperature: 10.0°C (50°F)
Dewpoint: -6.0°C (21°F) [RH = 32%]
Pressure (altimeter): 29.82 inches Hg (1010.0 mb)
Winds: from the W (270 degrees) at 15 MPH (13 knots; 6.7 m/s)
Visibility: 6 or more miles (10+ km)
Ceiling: at least 12,000 feet AGL
Clouds: few clouds at 3000 feet AGL
Weather: no significant weather observed at this time

METAR text: LFMN 261830Z 28016KT 9999 FEW023 10/M05 Q1009 NOSIG
Conditions at: LFMN (NICE/COTE D'AZUR, FR) observed 1830 UTC 26 February 2020
Temperature: 10.0°C (50°F)
Dewpoint: -5.0°C (23°F) [RH = 34%]
Pressure (altimeter): 29.79 inches Hg (1009.0 mb)
Winds: from the W (280 degrees) at 18 MPH (16 knots; 8.2 m/s)
Visibility: 6 or more miles (10+ km)
Ceiling: at least 12,000 feet AGL
Clouds: few clouds at 2300 feet AGL
Weather: no significant weather observed at this time

METAR text: LFMN 261800Z 28015KT 9999 FEW023 10/M07 Q1009 NOSIG
Conditions at: LFMN (NICE/COTE D'AZUR, FR) observed 1800 UTC 26 February 2020
Temperature: 10.0°C (50°F)
Dewpoint: -7.0°C (19°F) [RH = 29%]
Pressure (altimeter): 29.79 inches Hg (1009.0 mb)
Winds: from the W (280 degrees) at 17 MPH (15 knots; 7.7 m/s)
Visibility: 6 or more miles (10+ km)
Ceiling: at least 12,000 feet AGL
Clouds: few clouds at 2300 feet AGL
Weather: no significant weather observed at this time

METAR text: LFMN 261730Z 28018KT 9999 FEW023 11/M05 Q1008 NOSIG
Conditions at: LFMN (NICE/COTE D'AZUR, FR) observed 1730 UTC 26 February 2020
Temperature: 11.0°C (52°F)
Dewpoint: -5.0°C (23°F) [RH = 32%]
Pressure (altimeter): 29.76 inches Hg (1008.0 mb)
Winds: from the W (280 degrees) at 21 MPH (18 knots; 9.3 m/s)
Visibility: 6 or more miles (10+ km)
Ceiling: at least 12,000 feet AGL
Clouds: few clouds at 2300 feet AGL
Weather: no significant weather observed at this time

METAR text: LFMN 261700Z 28022G34KT 9999 FEW023 11/M05 Q1007 WS ALL RWY NOSIG
Conditions at: LFMN (NICE/COTE D'AZUR, FR) observed 1700 UTC 26 February 2020
Temperature: 11.0°C (52°F)
Dewpoint: -5.0°C (23°F) [RH = 32%]
Pressure (altimeter): 29.73 inches Hg (1007.0 mb)
Winds: from the W (280 degrees) at 25 MPH (22 knots; 11.3 m/s)
gusting to 39 MPH (34 knots; 17.5 m/s)
Visibility: 6 or more miles (10+ km)
Ceiling: at least 12,000 feet AGL
Clouds: few clouds at 2300 feet AGL
Weather: no significant weather observed at this time

METAR text: LFMN 261630Z 28021KT 9999 FEW023 11/M05 Q1006 WS ALL RWY NOSIG
Conditions at: LFMN (NICE/COTE D'AZUR, FR) observed 1630 UTC 26 February 2020
Temperature: 11.0°C (52°F)
Dewpoint: -5.0°C (23°F) [RH = 32%]
Pressure (altimeter): 29.70 inches Hg (1006.0 mb)
Winds: from the W (280 degrees) at 24 MPH (21 knots; 10.8 m/s)
Visibility: 6 or more miles (10+ km)
Ceiling: at least 12,000 feet AGL
Clouds: few clouds at 2300 feet AGL
Weather: no significant weather observed at this time

METAR text: LFMN 261600Z 28027KT 9999 FEW023 11/M02 Q1006 WS ALL RWY NOSIG
Conditions at: LFMN (NICE/COTE D'AZUR, FR) observed 1600 UTC 26 February 2020
Temperature: 11.0°C (52°F)
Dewpoint: -2.0°C (28°F) [RH = 40%]
Pressure (altimeter): 29.70 inches Hg (1006.0 mb)
Winds: from the W (280 degrees) at 31 MPH (27 knots; 13.9 m/s)
Visibility: 6 or more miles (10+ km)
Ceiling: at least 12,000 feet AGL
Clouds: few clouds at 2300 feet AGL
Weather: no significant weather observed at this time

METAR text: LFMN 261530Z 29023G33KT 9999 FEW023 13/M05 Q1005 WS ALL RWY NOSIG
Conditions at: LFMN (NICE/COTE D'AZUR, FR) observed 1530 UTC 26 February 2020
Temperature: 13.0°C (55°F)
Dewpoint: -5.0°C (23°F) [RH = 28%]
Pressure (altimeter): 29.68 inches Hg (1005.0 mb)
Winds: from the WNW (290 degrees) at 26 MPH (23 knots; 11.8 m/s)
gusting to 38 MPH (33 knots; 17.0 m/s)
Visibility: 6 or more miles (10+ km)
Ceiling: at least 12,000 feet AGL
Clouds: few clouds at 2300 feet AGL
Weather: no significant weather observed at this time

METAR text: LFMN 261500Z 29027KT 260V320 9999 FEW023 13/M06 Q1004 WS ALL RWY NOSIG
Conditions at: LFMN (NICE/COTE D'AZUR, FR) observed 1500 UTC 26 February 2020
Temperature: 13.0°C (55°F)
Dewpoint: -6.0°C (21°F) [RH = 26%]
Pressure (altimeter): 29.65 inches Hg (1004.0 mb)
Winds: from the WNW (290 degrees) at 31 MPH (27 knots; 13.9 m/s)
Visibility: 6 or more miles (10+ km)
Ceiling: at least 12,000 feet AGL
Clouds: few clouds at 2300 feet AGL
Weather: no significant weather observed at this time

METAR text: LFMN 261430Z 29018G29KT 260V320 9999 FEW023 13/M05 Q1004 WS ALL RWY NOSIG
Conditions at: LFMN (NICE/COTE D'AZUR, FR) observed 1430 UTC 26 February 2020
Temperature: 13.0°C (55°F)
Dewpoint: -5.0°C (23°F) [RH = 28%]
Pressure (altimeter): 29.65 inches Hg (1004.0 mb)
Winds: from the WNW (290 degrees) at 21 MPH (18 knots; 9.3 m/s)
gusting to 33 MPH (29 knots; 14.9 m/s)
Visibility: 6 or more miles (10+ km)
Ceiling: at least 12,000 feet AGL
Clouds: few clouds at 2300 feet AGL
Weather: no significant weather observed at this time

METAR text: LFMN 261400Z 29019G34KT 9999 FEW023 13/M05 Q1004 WS ALL RWY NOSIG
Conditions at: LFMN (NICE/COTE D'AZUR, FR) observed 1400 UTC 26 February 2020
Temperature: 13.0°C (55°F)
Dewpoint: -5.0°C (23°F) [RH = 28%]
Pressure (altimeter): 29.65 inches Hg (1004.0 mb)
Winds: from the WNW (290 degrees) at 22 MPH (19 knots; 9.8 m/s)
gusting to 39 MPH (34 knots; 17.5 m/s)
Visibility: 6 or more miles (10+ km)
Ceiling: at least 12,000 feet AGL
Clouds: few clouds at 2300 feet AGL
Weather: no significant weather observed at this time

METAR text: LFMN 261330Z 30022G33KT 9999 FEW023 13/M07 Q1004 WS ALL RWY NOSIG
Conditions at: LFMN (NICE/COTE D'AZUR, FR) observed 1330 UTC 26 February 2020
Temperature: 13.0°C (55°F)
Dewpoint: -7.0°C (19°F) [RH = 24%]
Pressure (altimeter): 29.65 inches Hg (1004.0 mb)
Winds: from the WNW (300 degrees) at 25 MPH (22 knots; 11.3 m/s)
gusting to 38 MPH (33 knots; 17.0 m/s)
Visibility: 6 or more miles (10+ km)
Ceiling: at least 12,000 feet AGL
Clouds: few clouds at 2300 feet AGL
Weather: no significant weather observed at this time

METAR text: LFMN 261300Z 28030G49KT 250V310 9999 FEW023 14/M09 Q1003 WS ALL RWY NOSIG
Conditions at: LFMN (NICE/COTE D'AZUR, FR) observed 1300 UTC 26 February 2020
Temperature: 14.0°C (57°F)
Dewpoint: -9.0°C (16°F) [RH = 19%]
Pressure (altimeter): 29.62 inches Hg (1003.0 mb)
Winds: from the W (280 degrees) at 34 MPH (30 knots; 15.4 m/s)
gusting to 56 MPH (49 knots; 25.2 m/s)
Visibility: 6 or more miles (10+ km)
Ceiling: at least 12,000 feet AGL
Clouds: few clouds at 2300 feet AGL
Weather: no significant weather observed at this time

METAR text: LFMN 261230Z 28030G41KT 9999 FEW023 15/M08 Q1003 WS ALL RWY NOSIG
Conditions at: LFMN (NICE/COTE D'AZUR, FR) observed 1230 UTC 26 February 2020
Temperature: 15.0°C (59°F)
Dewpoint: -8.0°C (18°F) [RH = 20%]
Pressure (altimeter): 29.62 inches Hg (1003.0 mb)
Winds: from the W (280 degrees) at 34 MPH (30 knots; 15.4 m/s)
gusting to 47 MPH (41 knots; 21.1 m/s)
Visibility: 6 or more miles (10+ km)
Ceiling: at least 12,000 feet AGL
Clouds: few clouds at 2300 feet AGL
Weather: no significant weather observed at this time

METAR text: LFMN 261200Z 29022G38KT 260V320 9999 FEW023 15/M09 Q1003 WS ALL RWY NOSIG
Conditions at: LFMN (NICE/COTE D'AZUR, FR) observed 1200 UTC 26 February 2020
Temperature: 15.0°C (59°F)
Dewpoint: -9.0°C (16°F) [RH = 18%]
Pressure (altimeter): 29.62 inches Hg (1003.0 mb)
Winds: from the WNW (290 degrees) at 25 MPH (22 knots; 11.3 m/s)
gusting to 44 MPH (38 knots; 19.5 m/s)
Visibility: 6 or more miles (10+ km)
Ceiling: at least 12,000 feet AGL
Clouds: few clouds at 2300 feet AGL
Weather: no significant weather observed at this time

METAR text: LFMN 261130Z 30023G35KT 9999 FEW023 14/M05 Q1004 WS ALL RWY NOSIG
Conditions at: LFMN (NICE/COTE D'AZUR, FR) observed 1130 UTC 26 February 2020
Temperature: 14.0°C (57°F)
Dewpoint: -5.0°C (23°F) [RH = 26%]
Pressure (altimeter): 29.65 inches Hg (1004.0 mb)
Winds: from the WNW (300 degrees) at 26 MPH (23 knots; 11.8 m/s)
gusting to 40 MPH (35 knots; 18.0 m/s)
Visibility: 6 or more miles (10+ km)
Ceiling: at least 12,000 feet AGL
Clouds: few clouds at 2300 feet AGL
Weather: no significant weather observed at this time

METAR text: LFMN 261100Z 30026G43KT 9999 FEW023 14/M03 Q1004 WS ALL RWY NOSIG
Conditions at: LFMN (NICE/COTE D'AZUR, FR) observed 1100 UTC 26 February 2020
Temperature: 14.0°C (57°F)
Dewpoint: -3.0°C (27°F) [RH = 31%]
Pressure (altimeter): 29.65 inches Hg (1004.0 mb)
Winds: from the WNW (300 degrees) at 30 MPH (26 knots; 13.4 m/s)
gusting to 49 MPH (43 knots; 22.1 m/s)
Visibility: 6 or more miles (10+ km)
Ceiling: at least 12,000 feet AGL
Clouds: few clouds at 2300 feet AGL
Weather: no significant weather observed at this time

METAR text: LFMN 261030Z 27024KT 9999 FEW023 15/M03 Q1003 WS ALL RWY NOSIG
Conditions at: LFMN (NICE/COTE D'AZUR, FR) observed 1030 UTC 26 February 2020
Temperature: 15.0°C (59°F)
Dewpoint: -3.0°C (27°F) [RH = 29%]
Pressure (altimeter): 29.62 inches Hg (1003.0 mb)
Winds: from the W (270 degrees) at 28 MPH (24 knots; 12.3 m/s)
Visibility: 6 or more miles (10+ km)
Ceiling: at least 12,000 feet AGL
Clouds: few clouds at 2300 feet AGL
Weather: no significant weather observed at this time

METAR text: LFMN 261000Z 28020G31KT 9999 FEW023 15/M03 Q1003 WS ALL RWY NOSIG
Conditions at: LFMN (NICE/COTE D'AZUR, FR) observed 1000 UTC 26 February 2020
Temperature: 15.0°C (59°F)
Dewpoint: -3.0°C (27°F) [RH = 29%]
Pressure (altimeter): 29.62 inches Hg (1003.0 mb)
Winds: from the W (280 degrees) at 23 MPH (20 knots; 10.3 m/s)
gusting to 36 MPH (31 knots; 15.9 m/s)
Visibility: 6 or more miles (10+ km)
Ceiling: at least 12,000 feet AGL
Clouds: few clouds at 2300 feet AGL
Weather: no significant weather observed at this time

METAR text: LFMN 260930Z 28018KT 9999 FEW023 15/M02 Q1003 WS ALL RWY NOSIG
Conditions at: LFMN (NICE/COTE D'AZUR, FR) observed 0930 UTC 26 February 2020
Temperature: 15.0°C (59°F)
Dewpoint: -2.0°C (28°F) [RH = 31%]
Pressure (altimeter): 29.62 inches Hg (1003.0 mb)
Winds: from the W (280 degrees) at 21 MPH (18 knots; 9.3 m/s)
Visibility: 6 or more miles (10+ km)
Ceiling: at least 12,000 feet AGL
Clouds: few clouds at 2300 feet AGL
Weather: no significant weather observed at this time

METAR text: LFMN 260900Z 28023G35KT 250V310 9999 FEW023 15/M00 Q1003 WS ALL RWY NOSIG
Conditions at: LFMN (NICE/COTE D'AZUR, FR) observed 0900 UTC 26 February 2020
Temperature: 15.0°C (59°F)
Dewpoint: 0.0°C (32°F) [RH = 36%]
Pressure (altimeter): 29.62 inches Hg (1003.0 mb)
Winds: from the W (280 degrees) at 26 MPH (23 knots; 11.8 m/s)
gusting to 40 MPH (35 knots; 18.0 m/s)
Visibility: 6 or more miles (10+ km)
Ceiling: at least 12,000 feet AGL
Clouds: few clouds at 2300 feet AGL
Weather: no significant weather observed at this time

METAR text: LFMN 260830Z 28017KT 9999 FEW023 15/M04 Q1003 WS ALL RWY NOSIG
Conditions at: LFMN (NICE/COTE D'AZUR, FR) observed 0830 UTC 26 February 2020
Temperature: 15.0°C (59°F)
Dewpoint: -4.0°C (25°F) [RH = 27%]
Pressure (altimeter): 29.62 inches Hg (1003.0 mb)
Winds: from the W (280 degrees) at 20 MPH (17 knots; 8.7 m/s)
Visibility: 6 or more miles (10+ km)
Ceiling: at least 12,000 feet AGL
Clouds: few clouds at 2300 feet AGL
Weather: no significant weather observed at this time

METAR text: LFMN 260800Z 27017KT CAVOK 15/M05 Q1003 WS ALL RWY NOSIG
Conditions at: LFMN (NICE/COTE D'AZUR, FR) observed 0800 UTC 26 February 2020
Temperature: 15.0°C (59°F)
Dewpoint: -5.0°C (23°F) [RH = 25%]
Pressure (altimeter): 29.62 inches Hg (1003.0 mb)
Winds: from the W (270 degrees) at 20 MPH (17 knots; 8.7 m/s)
Visibility: 6 or more miles (10+ km)
Ceiling: ceiling and visibility are OK
Clouds: unknown
Weather: no significant weather observed at this time

METAR text: LFMN 260748Z 27020G31KT 250V310 CAVOK 14/M04 Q1003 WS ALL RWY NOSIG
Conditions at: LFMN (NICE/COTE D'AZUR, FR) observed 0748 UTC 26 February 2020
Temperature: 14.0°C (57°F)
Dewpoint: -4.0°C (25°F) [RH = 28%]
Pressure (altimeter): 29.62 inches Hg (1003.0 mb)
Winds: from the W (270 degrees) at 23 MPH (20 knots; 10.3 m/s)
gusting to 36 MPH (31 knots; 15.9 m/s)
Visibility: 6 or more miles (10+ km)
Ceiling: ceiling and visibility are OK
Clouds: unknown
Weather: no significant weather observed at this time

METAR text: LFMN 260730Z 26020G37KT CAVOK 14/M04 Q1003 NOSIG
Conditions at: LFMN (NICE/COTE D'AZUR, FR) observed 0730 UTC 26 February 2020
Temperature: 14.0°C (57°F)
Dewpoint: -4.0°C (25°F) [RH = 28%]
Pressure (altimeter): 29.62 inches Hg (1003.0 mb)
Winds: from the W (260 degrees) at 23 MPH (20 knots; 10.3 m/s)
gusting to 43 MPH (37 knots; 19.0 m/s)
Visibility: 6 or more miles (10+ km)
Ceiling: ceiling and visibility are OK
Clouds: unknown
Weather: no significant weather observed at this time

METAR text: LFMN 260700Z 26018KT CAVOK 14/M04 Q1003 TEMPO 27025G35KT
Conditions at: LFMN (NICE/COTE D'AZUR, FR) observed 0700 UTC 26 February 2020
Temperature: 14.0°C (57°F)
Dewpoint: -4.0°C (25°F) [RH = 28%]
Pressure (altimeter): 29.62 inches Hg (1003.0 mb)
Winds: from the W (260 degrees) at 21 MPH (18 knots; 9.3 m/s)
Visibility: 6 or more miles (10+ km)
Ceiling: ceiling and visibility are OK
Clouds: unknown
Weather: no significant weather observed at this time

METAR text: LFMN 260630Z 27013KT CAVOK 13/M01 Q1003 TEMPO 27025G35KT
Conditions at: LFMN (NICE/COTE D'AZUR, FR) observed 0630 UTC 26 February 2020
Temperature: 13.0°C (55°F)
Dewpoint: -1.0°C (30°F) [RH = 38%]
Pressure (altimeter): 29.62 inches Hg (1003.0 mb)
Winds: from the W (270 degrees) at 15 MPH (13 knots; 6.7 m/s)
Visibility: 6 or more miles (10+ km)
Ceiling: ceiling and visibility are OK
Clouds: unknown
Weather: no significant weather observed at this time

METAR text: LFMN 260600Z 23015KT CAVOK 12/02 Q1002 TEMPO 27025G35KT
Conditions at: LFMN (NICE/COTE D'AZUR, FR) observed 0600 UTC 26 February 2020
Temperature: 12.0°C (54°F)
Dewpoint: 2.0°C (36°F) [RH = 50%]
Pressure (altimeter): 29.59 inches Hg (1002.0 mb)
Winds: from the SW (230 degrees) at 17 MPH (15 knots; 7.7 m/s)
Visibility: 6 or more miles (10+ km)
Ceiling: ceiling and visibility are OK
Clouds: unknown
Weather: no significant weather observed at this time

METAR text: LFMN 260530Z 24018KT 9999 FEW020 12/03 Q1003 TEMPO 27025G35KT
Conditions at: LFMN (NICE/COTE D'AZUR, FR) observed 0530 UTC 26 February 2020
Temperature: 12.0°C (54°F)
Dewpoint: 3.0°C (37°F) [RH = 54%]
Pressure (altimeter): 29.62 inches Hg (1003.0 mb)
Winds: from the WSW (240 degrees) at 21 MPH (18 knots; 9.3 m/s)
Visibility: 6 or more miles (10+ km)
Ceiling: at least 12,000 feet AGL
Clouds: few clouds at 2000 feet AGL
Weather: no significant weather observed at this time

METAR text: LFMN 260500Z 26020KT CAVOK 13/M01 Q1002 TEMPO 27025G35KT
Conditions at: LFMN (NICE/COTE D'AZUR, FR) observed 0500 UTC 26 February 2020
Temperature: 13.0°C (55°F)
Dewpoint: -1.0°C (30°F) [RH = 38%]
Pressure (altimeter): 29.59 inches Hg (1002.0 mb)
Winds: from the W (260 degrees) at 23 MPH (20 knots; 10.3 m/s)
Visibility: 6 or more miles (10+ km)
Ceiling: ceiling and visibility are OK
Clouds: unknown
Weather: no significant weather observed at this time

METAR text: LFMN 260430Z 27016KT CAVOK 15/M04 Q1002 TEMPO 27025G35KT
Conditions at: LFMN (NICE/COTE D'AZUR, FR) observed 0430 UTC 26 February 2020
Temperature: 15.0°C (59°F)
Dewpoint: -4.0°C (25°F) [RH = 27%]
Pressure (altimeter): 29.59 inches Hg (1002.0 mb)
Winds: from the W (270 degrees) at 18 MPH (16 knots; 8.2 m/s)
Visibility: 6 or more miles (10+ km)
Ceiling: ceiling and visibility are OK
Clouds: unknown
Weather: no significant weather observed at this time

METAR text: LFMN 260400Z 27019G32KT CAVOK 15/M02 Q1002 TEMPO 27025G35KT
Conditions at: LFMN (NICE/COTE D'AZUR, FR) observed 0400 UTC 26 February 2020
Temperature: 15.0°C (59°F)
Dewpoint: -2.0°C (28°F) [RH = 31%]
Pressure (altimeter): 29.59 inches Hg (1002.0 mb)
Winds: from the W (270 degrees) at 22 MPH (19 knots; 9.8 m/s)
gusting to 37 MPH (32 knots; 16.5 m/s)
Visibility: 6 or more miles (10+ km)
Ceiling: ceiling and visibility are OK
Clouds: unknown
Weather: no significant weather observed at this time

METAR text: LFMN 260330Z 27015KT 240V300 CAVOK 15/M04 Q1002 TEMPO 27025G35KT
Conditions at: LFMN (NICE/COTE D'AZUR, FR) observed 0330 UTC 26 February 2020
Temperature: 15.0°C (59°F)
Dewpoint: -4.0°C (25°F) [RH = 27%]
Pressure (altimeter): 29.59 inches Hg (1002.0 mb)
Winds: from the W (270 degrees) at 17 MPH (15 knots; 7.7 m/s)
Visibility: 6 or more miles (10+ km)
Ceiling: ceiling and visibility are OK
Clouds: unknown
Weather: no significant weather observed at this time

METAR text: LFMN 260300Z 27019KT CAVOK 15/M04 Q1002 TEMPO 27025G35KT
Conditions at: LFMN (NICE/COTE D'AZUR, FR) observed 0300 UTC 26 February 2020
Temperature: 15.0°C (59°F)
Dewpoint: -4.0°C (25°F) [RH = 27%]
Pressure (altimeter): 29.59 inches Hg (1002.0 mb)
Winds: from the W (270 degrees) at 22 MPH (19 knots; 9.8 m/s)
Visibility: 6 or more miles (10+ km)
Ceiling: ceiling and visibility are OK
Clouds: unknown
Weather: no significant weather observed at this time

METAR text: LFMN 260230Z 27019KT CAVOK 15/M03 Q1002 TEMPO 27025G35KT
Conditions at: LFMN (NICE/COTE D'AZUR, FR) observed 0230 UTC 26 February 2020
Temperature: 15.0°C (59°F)
Dewpoint: -3.0°C (27°F) [RH = 29%]
Pressure (altimeter): 29.59 inches Hg (1002.0 mb)
Winds: from the W (270 degrees) at 22 MPH (19 knots; 9.8 m/s)
Visibility: 6 or more miles (10+ km)
Ceiling: ceiling and visibility are OK
Clouds: unknown
Weather: no significant weather observed at this time

METAR text: LFMN 260200Z 28015KT CAVOK 15/M00 Q1002 NOSIG
Conditions at: LFMN (NICE/COTE D'AZUR, FR) observed 0200 UTC 26 February 2020
Temperature: 15.0°C (59°F)
Dewpoint: 0.0°C (32°F) [RH = 36%]
Pressure (altimeter): 29.59 inches Hg (1002.0 mb)
Winds: from the W (280 degrees) at 17 MPH (15 knots; 7.7 m/s)
Visibility: 6 or more miles (10+ km)
Ceiling: ceiling and visibility are OK
Clouds: unknown
Weather: no significant weather observed at this time

METAR text: LFMN 260130Z 30016KT 270V330 CAVOK 15/00 Q1002 NOSIG
Conditions at: LFMN (NICE/COTE D'AZUR, FR) observed 0130 UTC 26 February 2020
Temperature: 15.0°C (59°F)
Dewpoint: 0.0°C (32°F) [RH = 36%]
Pressure (altimeter): 29.59 inches Hg (1002.0 mb)
Winds: from the WNW (300 degrees) at 18 MPH (16 knots; 8.2 m/s)
Visibility: 6 or more miles (10+ km)
Ceiling: ceiling and visibility are OK
Clouds: unknown
Weather: no significant weather observed at this time

METAR text: LFMN 260100Z 25010KT CAVOK 14/04 Q1003 TEMPO 27020G35KT
Conditions at: LFMN (NICE/COTE D'AZUR, FR) observed 0100 UTC 26 February 2020
Temperature: 14.0°C (57°F)
Dewpoint: 4.0°C (39°F) [RH = 51%]
Pressure (altimeter): 29.62 inches Hg (1003.0 mb)
Winds: from the WSW (250 degrees) at 12 MPH (10 knots; 5.1 m/s)
Visibility: 6 or more miles (10+ km)
Ceiling: ceiling and visibility are OK
Clouds: unknown
Weather: no significant weather observed at this time

METAR text: LFMN 260030Z 24012KT CAVOK 13/06 Q1003 TEMPO 27020G35KT
Conditions at: LFMN (NICE/COTE D'AZUR, FR) observed 0030 UTC 26 February 2020
Temperature: 13.0°C (55°F)
Dewpoint: 6.0°C (43°F) [RH = 62%]
Pressure (altimeter): 29.62 inches Hg (1003.0 mb)
Winds: from the WSW (240 degrees) at 14 MPH (12 knots; 6.2 m/s)
Visibility: 6 or more miles (10+ km)
Ceiling: ceiling and visibility are OK
Clouds: unknown
Weather: no significant weather observed at this time

METAR text: LFMN 260000Z 27009KT CAVOK 14/06 Q1003 TEMPO 27020G35KT
Conditions at: LFMN (NICE/COTE D'AZUR, FR) observed 0000 UTC 26 February 2020
Temperature: 14.0°C (57°F)
Dewpoint: 6.0°C (43°F) [RH = 58%]
Pressure (altimeter): 29.62 inches Hg (1003.0 mb)
Winds: from the W (270 degrees) at 10 MPH (9 knots; 4.6 m/s)
Visibility: 6 or more miles (10+ km)
Ceiling: ceiling and visibility are OK
Clouds: unknown
Weather: no significant weather observed at this time

METAR text: LFMN 252330Z 24016KT CAVOK 14/06 Q1004 TEMPO 27020G35KT
Conditions at: LFMN (NICE/COTE D'AZUR, FR) observed 2330 UTC 25 February 2020
Temperature: 14.0°C (57°F)
Dewpoint: 6.0°C (43°F) [RH = 58%]
Pressure (altimeter): 29.65 inches Hg (1004.0 mb)
Winds: from the WSW (240 degrees) at 18 MPH (16 knots; 8.2 m/s)
Visibility: 6 or more miles (10+ km)
Ceiling: ceiling and visibility are OK
Clouds: unknown
Weather: no significant weather observed at this time

METAR text: LFMN 252300Z 22015KT CAVOK 14/07 Q1004 TEMPO 27020G35KT
Conditions at: LFMN (NICE/COTE D'AZUR, FR) observed 2300 UTC 25 February 2020
Temperature: 14.0°C (57°F)
Dewpoint: 7.0°C (45°F) [RH = 63%]
Pressure (altimeter): 29.65 inches Hg (1004.0 mb)
Winds: from the SW (220 degrees) at 17 MPH (15 knots; 7.7 m/s)
Visibility: 6 or more miles (10+ km)
Ceiling: ceiling and visibility are OK
Clouds: unknown
Weather: no significant weather observed at this time

METAR text: LFMN 252230Z 23018KT CAVOK 14/07 Q1004 TEMPO 27020G35KT
Conditions at: LFMN (NICE/COTE D'AZUR, FR) observed 2230 UTC 25 February 2020
Temperature: 14.0°C (57°F)
Dewpoint: 7.0°C (45°F) [RH = 63%]
Pressure (altimeter): 29.65 inches Hg (1004.0 mb)
Winds: from the SW (230 degrees) at 21 MPH (18 knots; 9.3 m/s)
Visibility: 6 or more miles (10+ km)
Ceiling: ceiling and visibility are OK
Clouds: unknown
Weather: no significant weather observed at this time

METAR text: LFMN 252200Z 24019KT CAVOK 14/05 Q1004 TEMPO 27020G35KT
Conditions at: LFMN (NICE/COTE D'AZUR, FR) observed 2200 UTC 25 February 2020
Temperature: 14.0°C (57°F)
Dewpoint: 5.0°C (41°F) [RH = 55%]
Pressure (altimeter): 29.65 inches Hg (1004.0 mb)
Winds: from the WSW (240 degrees) at 22 MPH (19 knots; 9.8 m/s)
Visibility: 6 or more miles (10+ km)
Ceiling: ceiling and visibility are OK
Clouds: unknown
Weather: no significant weather observed at this time

METAR text: LFMN 252130Z 24017KT CAVOK 14/05 Q1005 TEMPO 27020G35KT
Conditions at: LFMN (NICE/COTE D'AZUR, FR) observed 2130 UTC 25 February 2020
Temperature: 14.0°C (57°F)
Dewpoint: 5.0°C (41°F) [RH = 55%]
Pressure (altimeter): 29.68 inches Hg (1005.0 mb)
Winds: from the WSW (240 degrees) at 20 MPH (17 knots; 8.7 m/s)
Visibility: 6 or more miles (10+ km)
Ceiling: ceiling and visibility are OK
Clouds: unknown
Weather: no significant weather observed at this time

METAR text: LFMN 252100Z 25012KT CAVOK 14/05 Q1005 TEMPO 27020G35KT
Conditions at: LFMN (NICE/COTE D'AZUR, FR) observed 2100 UTC 25 February 2020
Temperature: 14.0°C (57°F)
Dewpoint: 5.0°C (41°F) [RH = 55%]
Pressure (altimeter): 29.68 inches Hg (1005.0 mb)
Winds: from the WSW (250 degrees) at 14 MPH (12 knots; 6.2 m/s)
Visibility: 6 or more miles (10+ km)
Ceiling: ceiling and visibility are OK
Clouds: unknown
Weather: no significant weather observed at this time

METAR text: LFMN 252030Z 26015KT CAVOK 15/05 Q1005 TEMPO 27020G35KT
Conditions at: LFMN (NICE/COTE D'AZUR, FR) observed 2030 UTC 25 February 2020
Temperature: 15.0°C (59°F)
Dewpoint: 5.0°C (41°F) [RH = 51%]
Pressure (altimeter): 29.68 inches Hg (1005.0 mb)
Winds: from the W (260 degrees) at 17 MPH (15 knots; 7.7 m/s)
Visibility: 6 or more miles (10+ km)
Ceiling: ceiling and visibility are OK
Clouds: unknown
Weather: no significant weather observed at this time

METAR text: LFMN 252000Z 23017KT CAVOK 15/06 Q1005 TEMPO 23020G35KT
Conditions at: LFMN (NICE/COTE D'AZUR, FR) observed 2000 UTC 25 February 2020
Temperature: 15.0°C (59°F)
Dewpoint: 6.0°C (43°F) [RH = 55%]
Pressure (altimeter): 29.68 inches Hg (1005.0 mb)
Winds: from the SW (230 degrees) at 20 MPH (17 knots; 8.7 m/s)
Visibility: 6 or more miles (10+ km)
Ceiling: ceiling and visibility are OK
Clouds: unknown
Weather: no significant weather observed at this time

METAR text: LFMN 251930Z 23018KT CAVOK 15/06 Q1005 TEMPO 23020G35KT
Conditions at: LFMN (NICE/COTE D'AZUR, FR) observed 1930 UTC 25 February 2020
Temperature: 15.0°C (59°F)
Dewpoint: 6.0°C (43°F) [RH = 55%]
Pressure (altimeter): 29.68 inches Hg (1005.0 mb)
Winds: from the SW (230 degrees) at 21 MPH (18 knots; 9.3 m/s)
Visibility: 6 or more miles (10+ km)
Ceiling: ceiling and visibility are OK
Clouds: unknown
Weather: no significant weather observed at this time

METAR text: LFMN 251900Z 17003KT 070V170 CAVOK 14/08 Q1005 BECMG 25015KT
Conditions at: LFMN (NICE/COTE D'AZUR, FR) observed 1900 UTC 25 February 2020
Temperature: 14.0°C (57°F)
Dewpoint: 8.0°C (46°F) [RH = 67%]
Pressure (altimeter): 29.68 inches Hg (1005.0 mb)
Winds: from the S (170 degrees) at 3 MPH (3 knots; 1.5 m/s)
Visibility: 6 or more miles (10+ km)
Ceiling: ceiling and visibility are OK
Clouds: unknown
Weather: no significant weather observed at this time

METAR text: LFMN 251830Z 09008KT CAVOK 13/10 Q1005 BECMG 25015KT
Conditions at: LFMN (NICE/COTE D'AZUR, FR) observed 1830 UTC 25 February 2020
Temperature: 13.0°C (55°F)
Dewpoint: 10.0°C (50°F) [RH = 82%]
Pressure (altimeter): 29.68 inches Hg (1005.0 mb)
Winds: from the E (90 degrees) at 9 MPH (8 knots; 4.1 m/s)
Visibility: 6 or more miles (10+ km)
Ceiling: ceiling and visibility are OK
Clouds: unknown
Weather: no significant weather observed at this time

METAR text: LFMN 251800Z 08008KT CAVOK 13/10 Q1005 BECMG 25015KT
Conditions at: LFMN (NICE/COTE D'AZUR, FR) observed 1800 UTC 25 February 2020
Temperature: 13.0°C (55°F)
Dewpoint: 10.0°C (50°F) [RH = 82%]
Pressure (altimeter): 29.68 inches Hg (1005.0 mb)
Winds: from the E (80 degrees) at 9 MPH (8 knots; 4.1 m/s)
Visibility: 6 or more miles (10+ km)
Ceiling: ceiling and visibility are OK
Clouds: unknown
Weather: no significant weather observed at this time

METAR text: LFMN 251730Z 05005KT CAVOK 13/09 Q1005 BECMG 25015KT
Conditions at: LFMN (NICE/COTE D'AZUR, FR) observed 1730 UTC 25 February 2020
Temperature: 13.0°C (55°F)
Dewpoint: 9.0°C (48°F) [RH = 77%]
Pressure (altimeter): 29.68 inches Hg (1005.0 mb)
Winds: from the NE (50 degrees) at 6 MPH (5 knots; 2.6 m/s)
Visibility: 6 or more miles (10+ km)
Ceiling: ceiling and visibility are OK
Clouds: unknown
Weather: no significant weather observed at this time

METAR text: LFMN 251700Z 14006KT 100V210 CAVOK 14/11 Q1005 BECMG 25015KT
Conditions at: LFMN (NICE/COTE D'AZUR, FR) observed 1700 UTC 25 February 2020
Temperature: 14.0°C (57°F)
Dewpoint: 11.0°C (52°F) [RH = 82%]
Pressure (altimeter): 29.68 inches Hg (1005.0 mb)
Winds: from the SE (140 degrees) at 7 MPH (6 knots; 3.1 m/s)
Visibility: 6 or more miles (10+ km)
Ceiling: ceiling and visibility are OK
Clouds: unknown
Weather: no significant weather observed at this time

METAR text: LFMN 251630Z 07005KT 030V130 CAVOK 14/09 Q1005 BECMG 25015KT
Conditions at: LFMN (NICE/COTE D'AZUR, FR) observed 1630 UTC 25 February 2020
Temperature: 14.0°C (57°F)
Dewpoint: 9.0°C (48°F) [RH = 72%]
Pressure (altimeter): 29.68 inches Hg (1005.0 mb)
Winds: from the ENE (70 degrees) at 6 MPH (5 knots; 2.6 m/s)
Visibility: 6 or more miles (10+ km)
Ceiling: ceiling and visibility are OK
Clouds: unknown
Weather: no significant weather observed at this time

METAR text: LFMN 251600Z 07005KT 040V100 CAVOK 14/09 Q1006 BECMG 25015KT
Conditions at: LFMN (NICE/COTE D'AZUR, FR) observed 1600 UTC 25 February 2020
Temperature: 14.0°C (57°F)
Dewpoint: 9.0°C (48°F) [RH = 72%]
Pressure (altimeter): 29.70 inches Hg (1006.0 mb)
Winds: from the ENE (70 degrees) at 6 MPH (5 knots; 2.6 m/s)
Visibility: 6 or more miles (10+ km)
Ceiling: ceiling and visibility are OK
Clouds: unknown
Weather: no significant weather observed at this time

METAR text: LFMN 251530Z VRB03KT CAVOK 14/09 Q1007 NOSIG
Conditions at: LFMN (NICE/COTE D'AZUR, FR) observed 1530 UTC 25 February 2020
Temperature: 14.0°C (57°F)
Dewpoint: 9.0°C (48°F) [RH = 72%]
Pressure (altimeter): 29.73 inches Hg (1007.0 mb)
Winds: variable direction winds at 3 MPH (3 knots; 1.5 m/s)
Visibility: 6 or more miles (10+ km)
Ceiling: ceiling and visibility are OK
Clouds: unknown
Weather: no significant weather observed at this time

METAR text: LFMN 251500Z 11003KT CAVOK 14/09 Q1007 NOSIG
Conditions at: LFMN (NICE/COTE D'AZUR, FR) observed 1500 UTC 25 February 2020
Temperature: 14.0°C (57°F)
Dewpoint: 9.0°C (48°F) [RH = 72%]
Pressure (altimeter): 29.73 inches Hg (1007.0 mb)
Winds: from the ESE (110 degrees) at 3 MPH (3 knots; 1.5 m/s)
Visibility: 6 or more miles (10+ km)
Ceiling: ceiling and visibility are OK
Clouds: unknown
Weather: no significant weather observed at this time

METAR text: LFMN 251430Z 08005KT CAVOK 14/09 Q1007 NOSIG
Conditions at: LFMN (NICE/COTE D'AZUR, FR) observed 1430 UTC 25 February 2020
Temperature: 14.0°C (57°F)
Dewpoint: 9.0°C (48°F) [RH = 72%]
Pressure (altimeter): 29.73 inches Hg (1007.0 mb)
Winds: from the E (80 degrees) at 6 MPH (5 knots; 2.6 m/s)
Visibility: 6 or more miles (10+ km)
Ceiling: ceiling and visibility are OK
Clouds: unknown
Weather: no significant weather observed at this time

METAR text: LFMN 251400Z 08004KT CAVOK 14/09 Q1007 NOSIG
Conditions at: LFMN (NICE/COTE D'AZUR, FR) observed 1400 UTC 25 February 2020
Temperature: 14.0°C (57°F)
Dewpoint: 9.0°C (48°F) [RH = 72%]
Pressure (altimeter): 29.73 inches Hg (1007.0 mb)
Winds: from the E (80 degrees) at 5 MPH (4 knots; 2.1 m/s)
Visibility: 6 or more miles (10+ km)
Ceiling: ceiling and visibility are OK
Clouds: unknown
Weather: no significant weather observed at this time

METAR text: LFMN 251330Z VRB02KT CAVOK 14/11 Q1008 NOSIG
Conditions at: LFMN (NICE/COTE D'AZUR, FR) observed 1330 UTC 25 February 2020
Temperature: 14.0°C (57°F)
Dewpoint: 11.0°C (52°F) [RH = 82%]
Pressure (altimeter): 29.76 inches Hg (1008.0 mb)
Winds: variable direction winds at 2 MPH (2 knots; 1.0 m/s)
Visibility: 6 or more miles (10+ km)
Ceiling: ceiling and visibility are OK
Clouds: unknown
Weather: no significant weather observed at this time

METAR text: LFMN 251300Z 15003KT 9999 FEW025 BKN260 14/10 Q1008 NOSIG
Conditions at: LFMN (NICE/COTE D'AZUR, FR) observed 1300 UTC 25 February 2020
Temperature: 14.0°C (57°F)
Dewpoint: 10.0°C (50°F) [RH = 77%]
Pressure (altimeter): 29.76 inches Hg (1008.0 mb)
Winds: from the SSE (150 degrees) at 3 MPH (3 knots; 1.5 m/s)
Visibility: 6 or more miles (10+ km)
Ceiling: 26000 feet AGL
Clouds: few clouds at 2500 feet AGL
broken clouds at 26000 feet AGL
Weather: no significant weather observed at this time

METAR text: LFMN 251230Z 19006KT 9999 FEW025 BKN260 14/09 Q1009 NOSIG
Conditions at: LFMN (NICE/COTE D'AZUR, FR) observed 1230 UTC 25 February 2020
Temperature: 14.0°C (57°F)
Dewpoint: 9.0°C (48°F) [RH = 72%]
Pressure (altimeter): 29.79 inches Hg (1009.0 mb)
Winds: from the S (190 degrees) at 7 MPH (6 knots; 3.1 m/s)
Visibility: 6 or more miles (10+ km)
Ceiling: 26000 feet AGL
Clouds: few clouds at 2500 feet AGL
broken clouds at 26000 feet AGL
Weather: no significant weather observed at this time

METAR text: LFMN 251200Z 19008KT 9999 FEW025 BKN260 14/09 Q1010 NOSIG
Conditions at: LFMN (NICE/COTE D'AZUR, FR) observed 1200 UTC 25 February 2020
Temperature: 14.0°C (57°F)
Dewpoint: 9.0°C (48°F) [RH = 72%]
Pressure (altimeter): 29.82 inches Hg (1010.0 mb)
Winds: from the S (190 degrees) at 9 MPH (8 knots; 4.1 m/s)
Visibility: 6 or more miles (10+ km)
Ceiling: 26000 feet AGL
Clouds: few clouds at 2500 feet AGL
broken clouds at 26000 feet AGL
Weather: no significant weather observed at this time

METAR text: LFMN 251130Z 20009KT 9999 FEW023 SCT260 13/10 Q1010 NOSIG
Conditions at: LFMN (NICE/COTE D'AZUR, FR) observed 1130 UTC 25 February 2020
Temperature: 13.0°C (55°F)
Dewpoint: 10.0°C (50°F) [RH = 82%]
Pressure (altimeter): 29.82 inches Hg (1010.0 mb)
Winds: from the SSW (200 degrees) at 10 MPH (9 knots; 4.6 m/s)
Visibility: 6 or more miles (10+ km)
Ceiling: at least 12,000 feet AGL
Clouds: few clouds at 2300 feet AGL
scattered clouds at 26000 feet AGL
Weather: no significant weather observed at this time

Forecast for: LFMN (NICE/COTE D'AZUR, FR)
Text: TAF LFMN 262000Z 2621/2803 31012KT CAVOK
Forecast period: 2100 UTC 26 February 2020 to 0900 UTC 27 February 2020
Forecast type: FROM: standard forecast or significant change
Winds: from the NW (310 degrees) at 14 MPH (12 knots; 6.2 m/s)
Visibility: 6 or more miles 10+ km)
Ceiling: unknown
Clouds: missing
Weather: NSW  (no significant weather)
Text: BECMG 2709/2711 25020G30KT BKN080
Forecast period: 0900 UTC 27 February 2020 to 0100 UTC 28 February 2020
Forecast type: BECOMING: Conditions expected to become as follows by 1100 UTC 27 February 2020
Winds: from the WSW (250 degrees) at 23 MPH (20 knots; 10.3 m/s)
gusting to 34 MPH (30 knots; 15.4 m/s)
Visibility: 6 or more miles 10+ km)
Ceiling: 8000 feet AGL
Clouds: broken clouds at 8000 feet AGL
Weather: NSW  (no significant weather)
Text: TEMPO 2712/2716 26030G40KT
Forecast period: 1200 to 1600 UTC 27 February 2020
Forecast type: TEMPORARY: The following changes expected for less than half the time period
Winds: from the W (260 degrees) at 34 MPH (30 knots; 15.4 m/s)
gusting to 46 MPH (40 knots; 20.6 m/s)
Visibility: missing
Ceiling: unknown
Clouds: missing
Weather: no significant weather forecast for this period
Text: PROB30
Forecast period: 1500 to 1700 UTC 27 February 2020
Forecast type: TEMPORARY: The following changes expected for less than half the time period
Visibility: missing
Ceiling: 3000 feet AGL
Clouds: broken clouds at 3000 feet AGL
Weather: SHRA  (rain showers)
Text: TEMPO 2715/2717 SHRA BKN030
Forecast period: 2000 UTC 27 February 2020 to 0000 UTC 28 February 2020
Forecast type: TEMPORARY: The following changes expected for less than half the time period
Winds: from the NW (310 degrees) at 23 MPH (20 knots; 10.3 m/s)
gusting to 46 MPH (40 knots; 20.6 m/s)
Visibility: missing
Ceiling: unknown
Clouds: missing
Weather: no significant weather forecast for this period
Text: PROB40
Forecast period: 0100 to 0300 UTC 28 February 2020
Forecast type: BECOMING: Conditions expected to become as follows by 0300 UTC 28 February 2020
Winds: from the E (80 degrees) at 14 MPH (12 knots; 6.2 m/s)
Visibility: 6 or more miles 10+ km)
Ceiling: 8000 feet AGL
Clouds: broken clouds at 8000 feet AGL
Weather: NSW  (no significant weather)